sensor_id;sensor_type;location;lat;lon;timestamp;pressure;altitude;pressure_sealevel;temperature;humidity
58473;BME280;44775;51.564;5.460;2023-04-06T00:01:10;101521.78;;;1.99;79.32
58473;BME280;44775;51.564;5.460;2023-04-06T00:03:35;101522.34;;;2.04;78.49
58473;BME280;44775;51.564;5.460;2023-04-06T00:06:01;101517.53;;;2.10;77.08
58473;BME280;44775;51.564;5.460;2023-04-06T00:08:26;101506.06;;;1.97;78.31
58473;BME280;44775;51.564;5.460;2023-04-06T00:10:52;101516.06;;;2.06;78.48
58473;BME280;44775;51.564;5.460;2023-04-06T00:13:17;101502.50;;;1.98;78.57
58473;BME280;44775;51.564;5.460;2023-04-06T00:15:43;101507.19;;;2.07;77.49
58473;BME280;44775;51.564;5.460;2023-04-06T00:18:08;101503.78;;;2.05;78.43
58473;BME280;44775;51.564;5.460;2023-04-06T00:20:33;101504.84;;;2.03;78.86
58473;BME280;44775;51.564;5.460;2023-04-06T00:22:58;101509.25;;;2.02;79.39
58473;BME280;44775;51.564;5.460;2023-04-06T00:25:25;101496.50;;;1.96;79.28
58473;BME280;44775;51.564;5.460;2023-04-06T00:27:50;101508.06;;;1.94;80.04
58473;BME280;44775;51.564;5.460;2023-04-06T00:30:16;101493.78;;;1.83;79.45
58473;BME280;44775;51.564;5.460;2023-04-06T00:32:41;101491.59;;;1.90;78.77
58473;BME280;44775;51.564;5.460;2023-04-06T00:35:06;101490.66;;;1.91;78.87
58473;BME280;44775;51.564;5.460;2023-04-06T00:37:32;101487.06;;;1.92;78.66
58473;BME280;44775;51.564;5.460;2023-04-06T00:39:57;101487.06;;;1.92;77.90
58473;BME280;44775;51.564;5.460;2023-04-06T00:42:24;101480.22;;;1.89;78.19
58473;BME280;44775;51.564;5.460;2023-04-06T00:44:56;101481.41;;;1.98;75.29
58473;BME280;44775;51.564;5.460;2023-04-06T00:47:22;101477.16;;;1.96;77.29
58473;BME280;44775;51.564;5.460;2023-04-06T00:49:48;101469.66;;;1.89;77.68
58473;BME280;44775;51.564;5.460;2023-04-06T00:52:13;101475.66;;;1.92;77.63
58473;BME280;44775;51.564;5.460;2023-04-06T00:54:39;101472.13;;;1.93;77.75
58473;BME280;44775;51.564;5.460;2023-04-06T00:57:05;101459.22;;;1.88;76.96
58473;BME280;44775;51.564;5.460;2023-04-06T00:59:31;101454.31;;;1.82;78.12
58473;BME280;44775;51.564;5.460;2023-04-06T01:01:56;101460.50;;;1.95;76.76
58473;BME280;44775;51.564;5.460;2023-04-06T01:04:21;101463.25;;;1.94;76.04
58473;BME280;44775;51.564;5.460;2023-04-06T01:06:50;101456.94;;;1.96;77.03
58473;BME280;44775;51.564;5.460;2023-04-06T01:09:16;101454.31;;;1.96;77.57
58473;BME280;44775;51.564;5.460;2023-04-06T01:11:42;101449.78;;;1.98;76.66
58473;BME280;44775;51.564;5.460;2023-04-06T01:14:07;101442.69;;;1.99;76.70
58473;BME280;44775;51.564;5.460;2023-04-06T01:16:33;101446.41;;;1.96;76.79
58473;BME280;44775;51.564;5.460;2023-04-06T01:18:58;101450.53;;;2.00;77.42
58473;BME280;44775;51.564;5.460;2023-04-06T01:21:24;101438.38;;;1.98;79.13
58473;BME280;44775;51.564;5.460;2023-04-06T01:23:50;101446.00;;;2.02;77.91
58473;BME280;44775;51.564;5.460;2023-04-06T01:26:15;101446.84;;;2.03;77.79
58473;BME280;44775;51.564;5.460;2023-04-06T01:28:41;101444.22;;;2.03;77.72
58473;BME280;44775;51.564;5.460;2023-04-06T01:31:07;101434.41;;;2.05;77.20
58473;BME280;44775;51.564;5.460;2023-04-06T01:33:33;101426.50;;;2.05;78.01
58473;BME280;44775;51.564;5.460;2023-04-06T01:35:59;101433.47;;;2.06;78.65
58473;BME280;44775;51.564;5.460;2023-04-06T01:38:25;101425.66;;;2.04;78.20
58473;BME280;44775;51.564;5.460;2023-04-06T01:40:51;101424.06;;;2.02;78.66
58473;BME280;44775;51.564;5.460;2023-04-06T01:43:16;101428.28;;;2.04;77.91
58473;BME280;44775;51.564;5.460;2023-04-06T01:45:42;101421.13;;;2.06;78.86
58473;BME280;44775;51.564;5.460;2023-04-06T01:48:07;101421.78;;;2.10;79.00
58473;BME280;44775;51.564;5.460;2023-04-06T01:50:33;101417.34;;;2.10;79.24
58473;BME280;44775;51.564;5.460;2023-04-06T01:52:58;101421.28;;;2.18;80.17
58473;BME280;44775;51.564;5.460;2023-04-06T01:55:23;101420.13;;;2.22;78.87
58473;BME280;44775;51.564;5.460;2023-04-06T01:57:49;101410.84;;;2.29;78.66
58473;BME280;44775;51.564;5.460;2023-04-06T02:00:15;101407.94;;;2.33;79.28
58473;BME280;44775;51.564;5.460;2023-04-06T02:02:41;101401.59;;;2.36;78.50
58473;BME280;44775;51.564;5.460;2023-04-06T02:05:07;101398.03;;;2.37;78.60
58473;BME280;44775;51.564;5.460;2023-04-06T02:07:32;101401.94;;;2.44;78.81
58473;BME280;44775;51.564;5.460;2023-04-06T02:09:58;101403.09;;;2.53;78.84
58473;BME280;44775;51.564;5.460;2023-04-06T02:12:23;101397.81;;;2.53;78.96
58473;BME280;44775;51.564;5.460;2023-04-06T02:14:48;101393.41;;;2.53;79.31
58473;BME280;44775;51.564;5.460;2023-04-06T02:17:14;101387.06;;;2.56;78.82
58473;BME280;44775;51.564;5.460;2023-04-06T02:19:40;101382.88;;;2.53;79.08
58473;BME280;44775;51.564;5.460;2023-04-06T02:22:05;101384.13;;;2.60;78.78
58473;BME280;44775;51.564;5.460;2023-04-06T02:24:31;101381.94;;;2.67;79.01
58473;BME280;44775;51.564;5.460;2023-04-06T02:26:56;101378.84;;;2.73;78.59
58473;BME280;44775;51.564;5.460;2023-04-06T02:29:21;101380.34;;;2.77;78.61
58473;BME280;44775;51.564;5.460;2023-04-06T02:31:46;101370.63;;;2.78;78.29
58473;BME280;44775;51.564;5.460;2023-04-06T02:34:12;101380.03;;;2.82;78.48
58473;BME280;44775;51.564;5.460;2023-04-06T02:36:45;101368.50;;;2.83;78.80
58473;BME280;44775;51.564;5.460;2023-04-06T02:39:10;101372.72;;;2.86;78.11
58473;BME280;44775;51.564;5.460;2023-04-06T02:41:36;101373.56;;;2.86;78.45
58473;BME280;44775;51.564;5.460;2023-04-06T02:44:01;101371.47;;;2.91;78.39
58473;BME280;44775;51.564;5.460;2023-04-06T02:46:26;101364.72;;;2.87;78.79
58473;BME280;44775;51.564;5.460;2023-04-06T02:48:52;101358.69;;;2.85;78.43
58473;BME280;44775;51.564;5.460;2023-04-06T02:51:17;101356.25;;;2.82;79.51
58473;BME280;44775;51.564;5.460;2023-04-06T02:53:43;101358.91;;;2.82;79.54
58473;BME280;44775;51.564;5.460;2023-04-06T02:56:08;101354.38;;;2.84;79.52
58473;BME280;44775;51.564;5.460;2023-04-06T02:58:33;101352.47;;;2.86;80.05
58473;BME280;44775;51.564;5.460;2023-04-06T03:00:59;101349.94;;;2.84;80.40
58473;BME280;44775;51.564;5.460;2023-04-06T03:03:24;101345.50;;;2.85;80.58
58473;BME280;44775;51.564;5.460;2023-04-06T03:05:50;101348.13;;;2.85;80.61
58473;BME280;44775;51.564;5.460;2023-04-06T03:08:15;101347.31;;;2.84;80.46
58473;BME280;44775;51.564;5.460;2023-04-06T03:10:40;101340.72;;;2.90;80.42
58473;BME280;44775;51.564;5.460;2023-04-06T03:13:06;101342.75;;;2.87;81.51
58473;BME280;44775;51.564;5.460;2023-04-06T03:15:31;101344.44;;;2.88;81.13
58473;BME280;44775;51.564;5.460;2023-04-06T03:17:57;101343.63;;;2.87;81.55
58473;BME280;44775;51.564;5.460;2023-04-06T03:20:23;101346.97;;;2.89;82.34
58473;BME280;44775;51.564;5.460;2023-04-06T03:22:48;101338.97;;;2.91;81.88
58473;BME280;44775;51.564;5.460;2023-04-06T03:25:13;101329.44;;;2.88;81.90
58473;BME280;44775;51.564;5.460;2023-04-06T03:27:38;101332.31;;;2.85;81.76
58473;BME280;44775;51.564;5.460;2023-04-06T03:30:04;101327.78;;;2.87;82.05
58473;BME280;44775;51.564;5.460;2023-04-06T03:32:30;101325.84;;;2.89;81.20
58473;BME280;44775;51.564;5.460;2023-04-06T03:34:55;101325.13;;;2.87;83.01
58473;BME280;44775;51.564;5.460;2023-04-06T03:37:20;101313.50;;;2.90;84.81
58473;BME280;44775;51.564;5.460;2023-04-06T03:39:46;101325.97;;;2.88;85.60
58473;BME280;44775;51.564;5.460;2023-04-06T03:42:11;101319.31;;;2.82;85.41
58473;BME280;44775;51.564;5.460;2023-04-06T03:44:36;101323.00;;;2.79;85.50
58473;BME280;44775;51.564;5.460;2023-04-06T03:47:01;101326.06;;;2.73;85.43
58473;BME280;44775;51.564;5.460;2023-04-06T03:49:27;101327.22;;;2.69;85.42
58473;BME280;44775;51.564;5.460;2023-04-06T03:51:53;101323.75;;;2.69;85.28
58473;BME280;44775;51.564;5.460;2023-04-06T03:54:18;101319.09;;;2.72;84.34
58473;BME280;44775;51.564;5.460;2023-04-06T03:56:43;101319.09;;;2.72;84.34
58473;BME280;44775;51.564;5.460;2023-04-06T03:59:09;101321.88;;;2.71;84.75
58473;BME280;44775;51.564;5.460;2023-04-06T04:01:34;101310.69;;;2.67;84.74
58473;BME280;44775;51.564;5.460;2023-04-06T04:03:59;101311.72;;;2.65;84.93
58473;BME280;44775;51.564;5.460;2023-04-06T04:06:25;101316.16;;;2.64;85.73
58473;BME280;44775;51.564;5.460;2023-04-06T04:08:50;101325.13;;;2.62;86.38
58473;BME280;44775;51.564;5.460;2023-04-06T04:11:16;101318.47;;;2.56;86.63
58473;BME280;44775;51.564;5.460;2023-04-06T04:13:41;101324.81;;;2.53;86.84
58473;BME280;44775;51.564;5.460;2023-04-06T04:16:06;101319.56;;;2.53;86.71
58473;BME280;44775;51.564;5.460;2023-04-06T04:18:31;101318.78;;;2.51;86.39
58473;BME280;44775;51.564;5.460;2023-04-06T04:20:57;101319.84;;;2.49;86.58
58473;BME280;44775;51.564;5.460;2023-04-06T04:23:22;101324.72;;;2.55;86.29
58473;BME280;44775;51.564;5.460;2023-04-06T04:25:48;101310.25;;;2.48;86.77
58473;BME280;44775;51.564;5.460;2023-04-06T04:28:13;101312.34;;;2.55;86.73
58473;BME280;44775;51.564;5.460;2023-04-06T04:30:38;101305.59;;;2.51;86.51
58473;BME280;44775;51.564;5.460;2023-04-06T04:33:04;101314.03;;;2.56;86.70
58473;BME280;44775;51.564;5.460;2023-04-06T04:35:29;101312.34;;;2.55;86.88
58473;BME280;44775;51.564;5.460;2023-04-06T04:37:54;101309.00;;;2.53;86.82
58473;BME280;44775;51.564;5.460;2023-04-06T04:40:20;101311.09;;;2.61;86.74
58473;BME280;44775;51.564;5.460;2023-04-06T04:42:45;101315.41;;;2.62;86.59
58473;BME280;44775;51.564;5.460;2023-04-06T04:45:11;101309.19;;;2.63;86.97
58473;BME280;44775;51.564;5.460;2023-04-06T04:47:36;101311.81;;;2.63;86.77
58473;BME280;44775;51.564;5.460;2023-04-06T04:50:02;101313.41;;;2.66;85.99
58473;BME280;44775;51.564;5.460;2023-04-06T04:52:27;101312.47;;;2.67;86.28
58473;BME280;44775;51.564;5.460;2023-04-06T04:54:52;101304.78;;;2.64;87.03
58473;BME280;44775;51.564;5.460;2023-04-06T04:57:17;101313.53;;;2.64;86.64
58473;BME280;44775;51.564;5.460;2023-04-06T04:59:43;101305.06;;;2.72;86.06
58473;BME280;44775;51.564;5.460;2023-04-06T05:02:09;101296.31;;;2.71;86.29
58473;BME280;44775;51.564;5.460;2023-04-06T05:04:35;101304.44;;;2.81;86.18
58473;BME280;44775;51.564;5.460;2023-04-06T05:07:08;101297.44;;;2.80;86.63
58473;BME280;44775;51.564;5.460;2023-04-06T05:09:33;101296.72;;;2.78;86.46
58473;BME280;44775;51.564;5.460;2023-04-06T05:11:59;101306.03;;;2.83;86.15
58473;BME280;44775;51.564;5.460;2023-04-06T05:14:26;101306.88;;;2.84;86.32
58473;BME280;44775;51.564;5.460;2023-04-06T05:16:51;101300.75;;;2.83;86.59
58473;BME280;44775;51.564;5.460;2023-04-06T05:19:16;101300.63;;;2.85;85.91
58473;BME280;44775;51.564;5.460;2023-04-06T05:21:42;101305.16;;;2.96;85.38
58473;BME280;44775;51.564;5.460;2023-04-06T05:24:07;101307.16;;;2.92;85.62
58473;BME280;44775;51.564;5.460;2023-04-06T05:26:33;101304.19;;;2.97;85.71
58473;BME280;44775;51.564;5.460;2023-04-06T05:28:58;101300.63;;;2.98;85.79
58473;BME280;44775;51.564;5.460;2023-04-06T05:31:24;101305.69;;;3.01;85.04
58473;BME280;44775;51.564;5.460;2023-04-06T05:33:49;101305.34;;;3.05;85.65
58473;BME280;44775;51.564;5.460;2023-04-06T05:36:15;101301.75;;;3.06;84.60
58473;BME280;44775;51.564;5.460;2023-04-06T05:38:40;101295.19;;;3.12;84.46
58473;BME280;44775;51.564;5.460;2023-04-06T05:41:05;101303.00;;;3.14;85.43
58473;BME280;44775;51.564;5.460;2023-04-06T05:43:31;101293.22;;;3.27;83.99
58473;BME280;44775;51.564;5.460;2023-04-06T05:45:56;101293.44;;;3.24;84.48
58473;BME280;44775;51.564;5.460;2023-04-06T05:48:21;101296.19;;;3.35;83.74
58473;BME280;44775;51.564;5.460;2023-04-06T05:50:50;101296.38;;;3.45;82.76
58473;BME280;44775;51.564;5.460;2023-04-06T05:53:16;101288.31;;;3.46;83.03
58473;BME280;44775;51.564;5.460;2023-04-06T05:55:42;101297.22;;;3.45;83.08
58473;BME280;44775;51.564;5.460;2023-04-06T05:58:07;101296.75;;;3.51;83.56
58473;BME280;44775;51.564;5.460;2023-04-06T06:00:32;101298.72;;;3.61;82.80
58473;BME280;44775;51.564;5.460;2023-04-06T06:02:58;101283.81;;;3.60;82.19
58473;BME280;44775;51.564;5.460;2023-04-06T06:05:23;101295.03;;;3.74;81.82
58473;BME280;44775;51.564;5.460;2023-04-06T06:07:48;101291.84;;;3.82;81.74
58473;BME280;44775;51.564;5.460;2023-04-06T06:10:14;101296.69;;;3.88;81.28
58473;BME280;44775;51.564;5.460;2023-04-06T06:12:39;101288.28;;;3.94;81.27
58473;BME280;44775;51.564;5.460;2023-04-06T06:15:05;101298.19;;;4.03;80.94
58473;BME280;44775;51.564;5.460;2023-04-06T06:17:30;101294.72;;;4.14;79.97
58473;BME280;44775;51.564;5.460;2023-04-06T06:19:56;101320.94;;;4.17;79.62
58473;BME280;44775;51.564;5.460;2023-04-06T06:22:21;101315.06;;;4.25;79.41
58473;BME280;44775;51.564;5.460;2023-04-06T06:24:46;101315.56;;;4.30;78.89
58473;BME280;44775;51.564;5.460;2023-04-06T06:27:12;101312.22;;;4.39;78.59
58473;BME280;44775;51.564;5.460;2023-04-06T06:29:37;101305.88;;;4.53;77.87
58473;BME280;44775;51.564;5.460;2023-04-06T06:32:03;101313.34;;;4.70;76.97
58473;BME280;44775;51.564;5.460;2023-04-06T06:34:28;101307.44;;;4.78;76.88
58473;BME280;44775;51.564;5.460;2023-04-06T06:36:53;101310.13;;;4.89;76.30
58473;BME280;44775;51.564;5.460;2023-04-06T06:39:20;101304.31;;;4.95;75.69
58473;BME280;44775;51.564;5.460;2023-04-06T06:41:45;101310.34;;;5.09;75.09
58473;BME280;44775;51.564;5.460;2023-04-06T06:44:11;101305.38;;;5.15;74.25
58473;BME280;44775;51.564;5.460;2023-04-06T06:46:36;101305.63;;;5.24;74.38
58473;BME280;44775;51.564;5.460;2023-04-06T06:49:01;101300.69;;;5.30;74.19
58473;BME280;44775;51.564;5.460;2023-04-06T06:51:28;101296.81;;;5.34;72.76
58473;BME280;44775;51.564;5.460;2023-04-06T06:53:53;101309.53;;;5.52;72.23
58473;BME280;44775;51.564;5.460;2023-04-06T06:56:18;101301.78;;;5.60;72.20
58473;BME280;44775;51.564;5.460;2023-04-06T06:58:43;101304.44;;;5.71;71.69
58473;BME280;44775;51.564;5.460;2023-04-06T07:01:09;101302.81;;;5.80;70.66
58473;BME280;44775;51.564;5.460;2023-04-06T07:03:34;101299.81;;;5.84;70.36
58473;BME280;44775;51.564;5.460;2023-04-06T07:05:59;101301.47;;;5.85;69.66
58473;BME280;44775;51.564;5.460;2023-04-06T07:08:24;101309.03;;;5.90;68.92
58473;BME280;44775;51.564;5.460;2023-04-06T07:10:51;101302.44;;;5.96;68.89
58473;BME280;44775;51.564;5.460;2023-04-06T07:13:21;101305.56;;;6.01;67.86
58473;BME280;44775;51.564;5.460;2023-04-06T07:15:49;101293.50;;;5.97;67.91
58473;BME280;44775;51.564;5.460;2023-04-06T07:18:15;101286.19;;;6.10;67.46
58473;BME280;44775;51.564;5.460;2023-04-06T07:20:41;101291.84;;;6.17;68.06
58473;BME280;44775;51.564;5.460;2023-04-06T07:23:06;101298.13;;;6.36;66.86
58473;BME280;44775;51.564;5.460;2023-04-06T07:25:31;101291.19;;;6.24;67.71
58473;BME280;44775;51.564;5.460;2023-04-06T07:27:56;101276.63;;;6.19;67.39
58473;BME280;44775;51.564;5.460;2023-04-06T07:30:22;101289.00;;;6.29;67.21
58473;BME280;44775;51.564;5.460;2023-04-06T07:32:48;101288.22;;;6.38;67.16
58473;BME280;44775;51.564;5.460;2023-04-06T07:35:14;101292.72;;;6.48;66.71
58473;BME280;44775;51.564;5.460;2023-04-06T07:37:39;101284.38;;;6.52;65.81
58473;BME280;44775;51.564;5.460;2023-04-06T07:40:05;101289.16;;;6.58;65.69
58473;BME280;44775;51.564;5.460;2023-04-06T07:42:31;101290.84;;;6.59;64.85
58473;BME280;44775;51.564;5.460;2023-04-06T07:44:58;101288.03;;;6.61;65.24
58473;BME280;44775;51.564;5.460;2023-04-06T07:47:23;101285.84;;;6.66;65.09
58473;BME280;44775;51.564;5.460;2023-04-06T07:49:48;101289.81;;;6.81;65.47
58473;BME280;44775;51.564;5.460;2023-04-06T07:52:14;101282.03;;;6.90;64.24
58473;BME280;44775;51.564;5.460;2023-04-06T07:54:40;101288.34;;;6.98;63.92
58473;BME280;44775;51.564;5.460;2023-04-06T07:57:06;101289.22;;;7.08;62.83
58473;BME280;44775;51.564;5.460;2023-04-06T07:59:31;101291.03;;;7.08;63.28
58473;BME280;44775;51.564;5.460;2023-04-06T08:01:56;101290.75;;;7.11;63.63
58473;BME280;44775;51.564;5.460;2023-04-06T08:04:22;101285.06;;;7.25;63.08
58473;BME280;44775;51.564;5.460;2023-04-06T08:06:47;101283.66;;;7.21;61.34
58473;BME280;44775;51.564;5.460;2023-04-06T08:09:12;101293.63;;;7.29;61.56
58473;BME280;44775;51.564;5.460;2023-04-06T08:11:37;101303.69;;;7.35;61.41
58473;BME280;44775;51.564;5.460;2023-04-06T08:14:03;101297.16;;;7.39;61.34
58473;BME280;44775;51.564;5.460;2023-04-06T08:16:28;101294.75;;;7.46;61.33
58473;BME280;44775;51.564;5.460;2023-04-06T08:18:53;101297.88;;;7.51;60.58
58473;BME280;44775;51.564;5.460;2023-04-06T08:21:19;101293.94;;;7.55;61.08
58473;BME280;44775;51.564;5.460;2023-04-06T08:23:44;101298.44;;;7.54;61.07
58473;BME280;44775;51.564;5.460;2023-04-06T08:26:11;101299.28;;;7.65;60.96
58473;BME280;44775;51.564;5.460;2023-04-06T08:28:36;101291.88;;;7.78;59.73
58473;BME280;44775;51.564;5.460;2023-04-06T08:31:05;101291.59;;;7.71;60.96
58473;BME280;44775;51.564;5.460;2023-04-06T08:33:30;101296.78;;;7.73;60.70
58473;BME280;44775;51.564;5.460;2023-04-06T08:35:56;101297.34;;;7.76;61.42
58473;BME280;44775;51.564;5.460;2023-04-06T08:38:21;101298.47;;;7.93;61.03
58473;BME280;44775;51.564;5.460;2023-04-06T08:40:46;101299.31;;;7.94;60.85
58473;BME280;44775;51.564;5.460;2023-04-06T08:43:16;101298.47;;;7.84;61.14
58473;BME280;44775;51.564;5.460;2023-04-06T08:45:42;101301.81;;;7.86;61.31
58473;BME280;44775;51.564;5.460;2023-04-06T08:48:08;101308.25;;;8.12;61.92
58473;BME280;44775;51.564;5.460;2023-04-06T08:50:34;101315.50;;;8.29;60.94
58473;BME280;44775;51.564;5.460;2023-04-06T08:53:00;101307.69;;;8.38;61.53
58473;BME280;44775;51.564;5.460;2023-04-06T08:55:26;101312.41;;;8.54;60.95
58473;BME280;44775;51.564;5.460;2023-04-06T08:57:52;101306.66;;;8.68;60.89
58473;BME280;44775;51.564;5.460;2023-04-06T09:00:21;101307.03;;;8.73;60.54
58473;BME280;44775;51.564;5.460;2023-04-06T09:02:47;101302.78;;;8.80;60.75
58473;BME280;44775;51.564;5.460;2023-04-06T09:05:14;101304.41;;;9.01;60.31
58473;BME280;44775;51.564;5.460;2023-04-06T09:07:40;101306.56;;;8.87;60.31
58473;BME280;44775;51.564;5.460;2023-04-06T09:10:06;101309.34;;;8.95;60.07
58473;BME280;44775;51.564;5.460;2023-04-06T09:12:32;101315.72;;;8.85;61.03
58473;BME280;44775;51.564;5.460;2023-04-06T09:14:59;101310.53;;;9.11;61.78
58473;BME280;44775;51.564;5.460;2023-04-06T09:17:27;101310.06;;;9.25;61.38
58473;BME280;44775;51.564;5.460;2023-04-06T09:19:52;101315.22;;;9.27;61.93
58473;BME280;44775;51.564;5.460;2023-04-06T09:22:18;101312.72;;;9.25;63.56
58473;BME280;44775;51.564;5.460;2023-04-06T09:24:49;101313.31;;;9.19;63.39
58473;BME280;44775;51.564;5.460;2023-04-06T09:27:15;101314.38;;;9.26;67.28
58473;BME280;44775;51.564;5.460;2023-04-06T09:29:44;101312.03;;;9.41;66.50
58473;BME280;44775;51.564;5.460;2023-04-06T09:32:10;101312.66;;;9.35;65.21
58473;BME280;44775;51.564;5.460;2023-04-06T09:34:38;101315.41;;;9.43;67.49
58473;BME280;44775;51.564;5.460;2023-04-06T09:37:14;101313.06;;;9.12;68.14
58473;BME280;44775;51.564;5.460;2023-04-06T09:39:39;101309.41;;;9.13;71.25
58473;BME280;44775;51.564;5.460;2023-04-06T09:42:05;101309.84;;;9.09;74.17
58473;BME280;44775;51.564;5.460;2023-04-06T09:44:30;101301.72;;;9.01;74.77
58473;BME280;44775;51.564;5.460;2023-04-06T09:46:56;101307.56;;;9.14;80.62
58473;BME280;44775;51.564;5.460;2023-04-06T09:49:22;101304.31;;;9.20;78.29
58473;BME280;44775;51.564;5.460;2023-04-06T09:51:57;101309.81;;;9.18;76.21
58473;BME280;44775;51.564;5.460;2023-04-06T09:54:28;101318.69;;;9.09;81.41
58473;BME280;44775;51.564;5.460;2023-04-06T09:59:52;101306.94;;;9.02;78.62
58473;BME280;44775;51.564;5.460;2023-04-06T10:02:30;101310.88;;;8.98;80.27
58473;BME280;44775;51.564;5.460;2023-04-06T10:05:03;101311.25;;;8.66;82.84
58473;BME280;44775;51.564;5.460;2023-04-06T10:07:30;101309.19;;;8.60;85.02
58473;BME280;44775;51.564;5.460;2023-04-06T10:09:57;101306.81;;;8.47;89.68
58473;BME280;44775;51.564;5.460;2023-04-06T10:12:24;101314.53;;;8.50;90.77
58473;BME280;44775;51.564;5.460;2023-04-06T10:14:49;101316.78;;;8.45;89.00
58473;BME280;44775;51.564;5.460;2023-04-06T10:17:15;101314.41;;;8.42;94.24
58473;BME280;44775;51.564;5.460;2023-04-06T10:19:53;101316.63;;;8.37;93.92
58473;BME280;44775;51.564;5.460;2023-04-06T10:22:43;101314.69;;;8.29;96.56
58473;BME280;44775;51.564;5.460;2023-04-06T10:25:10;101321.66;;;8.30;96.38
58473;BME280;44775;51.564;5.460;2023-04-06T10:27:35;101321.28;;;8.25;100.00
58473;BME280;44775;51.564;5.460;2023-04-06T10:30:04;101320.56;;;8.33;100.00
58473;BME280;44775;51.564;5.460;2023-04-06T10:32:34;101320.56;;;8.33;97.77
58473;BME280;44775;51.564;5.460;2023-04-06T10:35:11;101315.50;;;8.29;97.85
58473;BME280;44775;51.564;5.460;2023-04-06T10:38:00;101318.31;;;8.28;98.86
58473;BME280;44775;51.564;5.460;2023-04-06T10:40:26;101322.25;;;8.24;99.11
58473;BME280;44775;51.564;5.460;2023-04-06T10:42:53;101322.09;;;8.25;100.00
58473;BME280;44775;51.564;5.460;2023-04-06T10:45:26;101319.31;;;8.17;100.00
58473;BME280;44775;51.564;5.460;2023-04-06T10:47:54;101308.53;;;8.09;100.00
58473;BME280;44775;51.564;5.460;2023-04-06T10:50:21;101306.84;;;8.08;100.00
58473;BME280;44775;51.564;5.460;2023-04-06T10:52:58;101314.56;;;8.11;100.00
58473;BME280;44775;51.564;5.460;2023-04-06T10:55:25;101303.19;;;7.99;100.00
58473;BME280;44775;51.564;5.460;2023-04-06T10:57:51;101304.91;;;7.91;100.00
58473;BME280;44775;51.564;5.460;2023-04-06T11:00:17;101305.72;;;7.81;100.00
58473;BME280;44775;51.564;5.460;2023-04-06T11:02:44;101300.13;;;7.75;100.00
58473;BME280;44775;51.564;5.460;2023-04-06T11:05:11;101292.16;;;7.75;100.00
58473;BME280;44775;51.564;5.460;2023-04-06T11:07:36;101288.66;;;7.74;100.00
58473;BME280;44775;51.564;5.460;2023-04-06T11:10:02;101283.34;;;7.84;100.00
58473;BME280;44775;51.564;5.460;2023-04-06T11:12:28;101286.00;;;7.84;100.00
58473;BME280;44775;51.564;5.460;2023-04-06T11:14:58;101281.94;;;7.80;100.00
58473;BME280;44775;51.564;5.460;2023-04-06T11:17:36;101284.03;;;7.76;100.00
58473;BME280;44775;51.564;5.460;2023-04-06T11:20:03;101283.59;;;7.71;100.00
58473;BME280;44775;51.564;5.460;2023-04-06T11:22:30;101277.19;;;7.84;100.00
58473;BME280;44775;51.564;5.460;2023-04-06T11:25:08;101277.84;;;7.76;100.00
58473;BME280;44775;51.564;5.460;2023-04-06T11:27:34;101284.03;;;7.76;100.00
58473;BME280;44775;51.564;5.460;2023-04-06T11:30:00;101284.16;;;7.65;100.00
58473;BME280;44775;51.564;5.460;2023-04-06T11:32:26;101282.88;;;7.69;100.00
58473;BME280;44775;51.564;5.460;2023-04-06T11:34:51;101277.00;;;7.66;100.00
58473;BME280;44775;51.564;5.460;2023-04-06T11:37:16;101265.41;;;7.67;100.00
58473;BME280;44775;51.564;5.460;2023-04-06T11:39:50;101267.38;;;7.84;100.00
58473;BME280;44775;51.564;5.460;2023-04-06T11:42:26;101266.38;;;8.04;100.00
58473;BME280;44775;51.564;5.460;2023-04-06T11:44:54;101251.78;;;8.09;100.00
58473;BME280;44775;51.564;5.460;2023-04-06T11:47:20;101261.44;;;8.10;100.00
58473;BME280;44775;51.564;5.460;2023-04-06T11:49:46;101257.25;;;8.17;100.00
58473;BME280;44775;51.564;5.460;2023-04-06T11:52:21;101249.69;;;8.12;100.00
58473;BME280;44775;51.564;5.460;2023-04-06T11:54:48;101248.00;;;8.11;100.00
58473;BME280;44775;51.564;5.460;2023-04-06T11:57:14;101240.00;;;8.21;100.00
58473;BME280;44775;51.564;5.460;2023-04-06T11:59:39;101243.88;;;8.36;100.00
58473;BME280;44775;51.564;5.460;2023-04-06T12:02:05;101243.31;;;8.52;100.00
58473;BME280;44775;51.564;5.460;2023-04-06T12:04:31;101237.66;;;8.65;100.00
58473;BME280;44775;51.564;5.460;2023-04-06T12:06:57;101239.53;;;8.82;100.00
58473;BME280;44775;51.564;5.460;2023-04-06T12:09:22;101232.97;;;8.77;100.00
58473;BME280;44775;51.564;5.460;2023-04-06T12:11:48;101231.25;;;8.85;100.00
58473;BME280;44775;51.564;5.460;2023-04-06T12:14:13;101236.66;;;8.93;100.00
58473;BME280;44775;51.564;5.460;2023-04-06T12:16:39;101223.16;;;8.77;100.00
58473;BME280;44775;51.564;5.460;2023-04-06T12:19:05;101227.34;;;8.80;100.00
58473;BME280;44775;51.564;5.460;2023-04-06T12:21:31;101233.47;;;8.62;100.00
58473;BME280;44775;51.564;5.460;2023-04-06T12:23:57;101235.91;;;8.46;100.00
58473;BME280;44775;51.564;5.460;2023-04-06T12:26:23;101228.97;;;8.63;100.00
58473;BME280;44775;51.564;5.460;2023-04-06T12:28:48;101233.50;;;8.33;100.00
58473;BME280;44775;51.564;5.460;2023-04-06T12:31:17;101236.72;;;8.37;100.00
58473;BME280;44775;51.564;5.460;2023-04-06T12:33:45;101230.31;;;8.29;100.00
58473;BME280;44775;51.564;5.460;2023-04-06T12:36:12;101232.59;;;8.15;100.00
58473;BME280;44775;51.564;5.460;2023-04-06T12:38:38;101229.91;;;8.24;100.00
58473;BME280;44775;51.564;5.460;2023-04-06T12:41:05;101227.16;;;8.07;100.00
58473;BME280;44775;51.564;5.460;2023-04-06T12:43:30;101214.69;;;7.97;100.00
58473;BME280;44775;51.564;5.460;2023-04-06T12:45:56;101230.78;;;8.05;100.00
58473;BME280;44775;51.564;5.460;2023-04-06T12:48:21;101227.56;;;8.02;100.00
58473;BME280;44775;51.564;5.460;2023-04-06T12:50:57;101219.28;;;8.05;100.00
58473;BME280;44775;51.564;5.460;2023-04-06T12:53:22;101214.78;;;8.15;100.00
58473;BME280;44775;51.564;5.460;2023-04-06T12:55:47;101209.06;;;8.10;100.00